Aviation Digital Data Service (ADDS)

Output produced by TAFs form (1113 UTC 24 May 2015)
found at http://aviationweather.gov/adds/tafs/
 
KEGE 240535Z 2406/2506 08005KT P6SM BKN120 
     FM241300 VRB03KT P6SM VCSH SCT050 BKN090 
     FM241800 25012KT P6SM VCSH SCT050 BKN090 
     FM242100 26010G18KT P6SM VCTS SCT030CB BKN080 
     FM250100 06006KT P6SM BKN100 AMD LTD TO CLD VIS AND WIND TIL 241300